Time;durP1;ratioP1;P1;durP2;ratioP2;P2;SDS_P1;SDS_P2;PMS_P1;PMS_P2;Temp;Humidity;BMP_temperature;BMP_pressure;BME280_temperature;BME280_humidity;BME280_pressure;Samples;Min_cycle;Max_cycle;Signal;HPM_P1;HPM_P2
2022/11/23 00:01:12;;;;;;;6.82;4.43;;;;;;;;;;6243217;23;20020;-78
2022/11/23 00:03:38;;;;;;;7.53;4.35;;;;;;;;;;6243051;23;20019;-78
2022/11/23 00:06:03;;;;;;;7.00;4.55;;;;;;;;;;6244714;22;20004;-77
2022/11/23 00:08:29;;;;;;;8.07;4.80;;;;;;;;;;6268389;22;20012;-78
2022/11/23 00:10:57;;;;;;;7.93;5.35;;;;;;;;;;6244707;22;20008;-79
2022/11/23 00:13:22;;;;;;;6.93;4.63;;;;;;;;;;6268160;22;20012;-78
2022/11/23 00:15:48;;;;;;;8.38;4.78;;;;;;;;;;6268797;22;20069;-79
2022/11/23 00:18:13;;;;;;;9.35;5.07;;;;;;;;;;6244558;23;20008;-78
2022/11/23 00:20:39;;;;;;;8.27;4.85;;;;;;;;;;6268777;22;20006;-78
2022/11/23 00:23:04;;;;;;;7.38;4.80;;;;;;;;;;6244870;23;20015;-78
2022/11/23 00:25:30;;;;;;;8.68;5.07;;;;;;;;;;6244900;22;20004;-78
2022/11/23 00:27:55;;;;;;;8.60;5.32;;;;;;;;;;6243893;22;20073;-78
2022/11/23 00:30:21;;;;;;;10.40;5.85;;;;;;;;;;6242959;23;20328;-78
2022/11/23 00:32:46;;;;;;;9.95;5.72;;;;;;;;;;6243112;23;20019;-78
2022/11/23 00:35:12;;;;;;;11.15;6.28;;;;;;;;;;6268542;22;20048;-79
2022/11/23 00:37:37;;;;;;;10.02;6.15;;;;;;;;;;6244710;22;20011;-77
2022/11/23 00:40:03;;;;;;;9.23;6.25;;;;;;;;;;6268411;22;19996;-77
2022/11/23 00:42:29;;;;;;;10.68;6.30;;;;;;;;;;6244267;22;20008;-77
2022/11/23 00:44:54;;;;;;;10.32;5.55;;;;;;;;;;6268054;22;20000;-78
2022/11/23 00:47:20;;;;;;;10.40;5.28;;;;;;;;;;6268103;22;20008;-77
2022/11/23 00:49:45;;;;;;;8.45;5.30;;;;;;;;;;6244373;22;19996;-78
2022/11/23 00:52:36;;;;;;;8.48;5.07;;;;;;;;;;6243001;23;20153;-78
2022/11/23 00:55:02;;;;;;;9.93;5.60;;;;;;;;;;6268342;22;20046;-79
2022/11/23 00:57:27;;;;;;;9.35;5.80;;;;;;;;;;6268028;22;20006;-77
2022/11/23 00:59:53;;;;;;;9.27;5.72;;;;;;;;;;6244116;22;20107;-78
2022/11/23 01:02:18;;;;;;;8.20;5.10;;;;;;;;;;6268314;22;20012;-78
2022/11/23 01:04:44;;;;;;;9.35;6.03;;;;;;;;;;6267921;22;20340;-78
2022/11/23 01:07:09;;;;;;;9.70;5.85;;;;;;;;;;6244218;22;20383;-78
2022/11/23 01:09:35;;;;;;;16.10;5.43;;;;;;;;;;6242777;23;20016;-78
2022/11/23 01:12:00;;;;;;;10.13;5.30;;;;;;;;;;6242474;23;20008;-77
2022/11/23 01:14:26;;;;;;;9.48;5.55;;;;;;;;;;6243989;23;20008;-79
2022/11/23 01:16:51;;;;;;;8.95;5.13;;;;;;;;;;6268036;22;19996;-79
2022/11/23 01:19:17;;;;;;;9.38;4.80;;;;;;;;;;6267551;22;20011;-79
2022/11/23 01:21:46;;;;;;;8.88;5.20;;;;;;;;;;6244305;22;20004;-78
2022/11/23 01:24:15;;;;;;;10.45;4.95;;;;;;;;;;6268017;22;20016;-79
2022/11/23 01:26:41;;;;;;;8.50;4.95;;;;;;;;;;6242275;23;20007;-77
2022/11/23 01:29:07;;;;;;;11.77;6.30;;;;;;;;;;6267771;22;20008;-78
2022/11/23 01:31:32;;;;;;;9.02;5.10;;;;;;;;;;6242348;23;20050;-77
2022/11/23 01:33:58;;;;;;;9.52;4.68;;;;;;;;;;6243714;23;20038;-79
2022/11/23 01:36:24;;;;;;;;;;;;;;;;;;6268603;22;20000;-78
2022/11/23 01:38:50;;;;;;;9.13;4.88;;;;;;;;;;6243624;22;20361;-78
2022/11/23 01:41:16;;;;;;;9.10;5.50;;;;;;;;;;6267897;22;20338;-78
2022/11/23 01:43:42;;;;;;;10.38;5.38;;;;;;;;;;6267621;22;20019;-78
2022/11/23 01:46:07;;;;;;;8.35;4.85;;;;;;;;;;6242052;23;20343;-79
2022/11/23 01:48:35;;;;;;;8.82;5.47;;;;;;;;;;6241911;23;20023;-78
2022/11/23 01:51:01;;;;;;;10.55;5.13;;;;;;;;;;6242227;23;20042;-78
2022/11/23 01:53:27;;;;;;;9.73;4.93;;;;;;;;;;6242057;23;20012;-78
2022/11/23 01:55:52;;;;;;;7.35;5.00;;;;;;;;;;6267964;22;20066;-78
2022/11/23 01:58:19;;;;;;;8.32;5.32;;;;;;;;;;6241656;22;20012;-79
2022/11/23 02:00:45;;;;;;;8.02;4.78;;;;;;;;;;6241697;23;20107;-78
2022/11/23 02:03:12;;;;;;;9.10;5.97;;;;;;;;;;6242139;23;20055;-78
2022/11/23 02:05:42;;;;;;;8.43;5.30;;;;;;;;;;6267116;22;20438;-78
2022/11/23 02:08:08;;;;;;;8.48;4.88;;;;;;;;;;6268069;22;20086;-79
2022/11/23 02:10:35;;;;;;;8.57;5.05;;;;;;;;;;6241322;23;20007;-78
2022/11/23 02:13:05;;;;;;;9.32;6.38;;;;;;;;;;6242001;23;20012;-78
2022/11/23 02:15:34;;;;;;;10.48;5.00;;;;;;;;;;6266953;22;20003;-78
2022/11/23 02:18:00;;;;;;;8.15;5.05;;;;;;;;;;6241523;23;20352;-78
2022/11/23 02:20:25;;;;;;;7.78;5.03;;;;;;;;;;6242104;22;20011;-78
2022/11/23 02:22:54;;;;;;;8.98;5.70;;;;;;;;;;6241816;23;20515;-78
2022/11/23 02:25:24;;;;;;;9.82;5.13;;;;;;;;;;6243481;23;20138;-78
2022/11/23 02:27:51;;;;;;;8.98;5.22;;;;;;;;;;6241410;23;20032;-77
2022/11/23 02:30:17;;;;;;;9.57;5.18;;;;;;;;;;6241843;23;20004;-77
2022/11/23 02:32:43;;;;;;;10.02;5.28;;;;;;;;;;6241750;23;20348;-78
2022/11/23 02:35:09;;;;;;;9.45;5.82;;;;;;;;;;6241885;23;20046;-78
2022/11/23 02:37:35;;;;;;;10.60;5.60;;;;;;;;;;6241916;23;20012;-79
2022/11/23 02:40:01;;;;;;;9.18;4.63;;;;;;;;;;6267414;22;20056;-78
2022/11/23 02:42:26;;;;;;;8.00;5.18;;;;;;;;;;6241420;23;20062;-77
2022/11/23 02:45:07;;;;;;;10.50;5.80;;;;;;;;;;6216583;23;20095;-78
2022/11/23 02:47:35;;;;;;;9.82;5.03;;;;;;;;;;6241782;23;20023;-78
2022/11/23 02:50:01;;;;;;;9.50;4.65;;;;;;;;;;6243541;23;20003;-78
2022/11/23 02:52:26;;;;;;;8.65;5.38;;;;;;;;;;6217680;23;20012;-79
2022/11/23 02:54:52;;;;;;;11.93;4.85;;;;;;;;;;6269502;22;20003;-79
2022/11/23 02:57:17;;;;;;;8.90;4.95;;;;;;;;;;6268903;22;20016;-79
2022/11/23 02:59:44;;;;;;;7.82;5.03;;;;;;;;;;6268741;22;20031;-78
2022/11/23 03:02:10;;;;;;;7.55;5.38;;;;;;;;;;6268469;22;20459;-78
2022/11/23 03:04:35;;;;;;;7.68;4.63;;;;;;;;;;6243629;23;20450;-79
2022/11/23 03:07:01;;;;;;;8.35;5.05;;;;;;;;;;6269064;22;20023;-80
2022/11/23 03:09:27;;;;;;;7.28;5.03;;;;;;;;;;6268932;22;20475;-79
2022/11/23 03:11:52;;;;;;;8.63;5.10;;;;;;;;;;6244724;22;20040;-79
2022/11/23 03:14:18;;;;;;;8.07;5.25;;;;;;;;;;6269312;22;20048;-79
2022/11/23 03:16:51;;;;;;;11.07;5.22;;;;;;;;;;6267537;22;20008;-79
2022/11/23 03:19:18;;;;;;;8.48;4.70;;;;;;;;;;6243096;23;20008;-82
2022/11/23 03:21:44;;;;;;;6.45;4.70;;;;;;;;;;6217789;23;20023;-79
2022/11/23 03:24:09;;;;;;;5.90;4.30;;;;;;;;;;6268911;22;20150;-81
2022/11/23 03:26:36;;;;;;;7.10;4.40;;;;;;;;;;6243401;23;20004;-79
2022/11/23 03:29:09;;;;;;;7.13;4.55;;;;;;;;;;6269068;22;20015;-79
2022/11/23 03:31:36;;;;;;;7.13;4.38;;;;;;;;;;6242838;23;20058;-79
2022/11/23 03:34:04;;;;;;;6.13;4.53;;;;;;;;;;6243376;23;20000;-80
2022/11/23 03:36:33;;;;;;;7.55;5.20;;;;;;;;;;6268200;22;20059;-80
2022/11/23 03:38:58;;;;;;;7.63;5.07;;;;;;;;;;6268293;22;19996;-80
2022/11/23 03:41:47;;;;;;;7.18;4.57;;;;;;;;;;6194770;22;20012;-80
2022/11/23 03:44:13;;;;;;;6.70;4.68;;;;;;;;;;6217838;23;20011;-79
2022/11/23 03:46:38;;;;;;;7.80;4.47;;;;;;;;;;6268884;22;19996;-79
2022/11/23 03:49:04;;;;;;;7.50;4.57;;;;;;;;;;6268327;22;20019;-78
2022/11/23 03:51:31;;;;;;;6.85;4.60;;;;;;;;;;6268070;22;20031;-78
2022/11/23 03:53:56;;;;;;;6.90;4.82;;;;;;;;;;6243281;23;20035;-77
2022/11/23 03:56:23;;;;;;;8.00;4.55;;;;;;;;;;6242702;23;20000;-78
2022/11/23 03:58:49;;;;;;;7.10;5.05;;;;;;;;;;6268686;22;20428;-80
2022/11/23 04:01:14;;;;;;;8.55;5.53;;;;;;;;;;6242397;23;20020;-79
2022/11/23 04:03:43;;;;;;;10.75;5.45;;;;;;;;;;6242993;23;20067;-80
2022/11/23 04:06:13;;;;;;;11.27;5.60;;;;;;;;;;6268789;22;20046;-79
2022/11/23 04:08:54;;;;;;;10.95;5.90;;;;;;;;;;6242496;23;20016;-78
2022/11/23 04:11:34;;;;;;;8.93;5.78;;;;;;;;;;6242310;23;20135;-78
2022/11/23 04:14:00;;;;;;;8.68;5.47;;;;;;;;;;6242239;23;20035;-79
2022/11/23 04:16:25;;;;;;;10.27;6.30;;;;;;;;;;6241842;23;19996;-79
2022/11/23 04:18:51;;;;;;;10.80;6.30;;;;;;;;;;6267615;22;20012;-79
2022/11/23 04:21:16;;;;;;;11.30;6.20;;;;;;;;;;6242179;23;20428;-79
2022/11/23 04:23:42;;;;;;;;;;;;;;;;;;6267827;22;20012;-80
2022/11/23 04:26:09;;;;;;;13.20;7.63;;;;;;;;;;6241873;23;19930;-79
2022/11/23 04:28:39;;;;;;;15.07;7.03;;;;;;;;;;6267664;22;20011;-79
2022/11/23 04:31:04;;;;;;;;;;;;;;;;;;6242083;23;20012;-79
2022/11/23 04:33:39;;;;;;;14.82;7.35;;;;;;;;;;6241932;23;19982;-79
2022/11/23 04:36:06;;;;;;;15.70;7.80;;;;;;;;;;6242147;22;20016;-80
2022/11/23 04:38:32;;;;;;;16.52;7.22;;;;;;;;;;6242262;23;20568;-79
2022/11/23 04:40:58;;;;;;;15.20;6.97;;;;;;;;;;6267372;22;20178;-79
2022/11/23 04:43:24;;;;;;;12.00;6.95;;;;;;;;;;6241965;22;20065;-79
2022/11/23 04:45:49;;;;;;;11.70;6.50;;;;;;;;;;6216451;23;20016;-79
2022/11/23 04:48:22;;;;;;;9.50;5.82;;;;;;;;;;6267145;22;20019;-80
2022/11/23 04:50:48;;;;;;;12.20;6.43;;;;;;;;;;6266995;22;20016;-79
2022/11/23 04:53:22;;;;;;;10.15;5.97;;;;;;;;;;6241656;23;19996;-80
2022/11/23 04:55:48;;;;;;;12.10;7.30;;;;;;;;;;6216459;23;20436;-78
2022/11/23 04:58:15;;;;;;;12.88;6.85;;;;;;;;;;6241449;23;20027;-78
2022/11/23 05:00:41;;;;;;;14.63;7.75;;;;;;;;;;6216394;23;20035;-80
2022/11/23 05:03:08;;;;;;;12.35;7.35;;;;;;;;;;6241419;23;20524;-80
2022/11/23 05:05:37;;;;;;;13.98;6.85;;;;;;;;;;6241580;23;20409;-79
2022/11/23 05:08:04;;;;;;;12.82;7.15;;;;;;;;;;6241628;23;20058;-80
2022/11/23 05:10:49;;;;;;;16.92;9.48;;;;;;;;;;6262445;22;20070;-79
2022/11/23 05:13:15;;;;;;;16.63;8.88;;;;;;;;;;6241118;23;20012;-79
2022/11/23 05:15:42;;;;;;;14.85;7.28;;;;;;;;;;6267358;22;20340;-80
2022/11/23 05:18:09;;;;;;;10.88;5.97;;;;;;;;;;6241568;23;20057;-79
2022/11/23 05:20:35;;;;;;;21.33;8.63;;;;;;;;;;6241433;23;20382;-80
2022/11/23 05:23:01;;;;;;;25.23;8.57;;;;;;;;;;6267088;22;20039;-81
2022/11/23 05:25:27;;;;;;;38.42;8.38;;;;;;;;;;6241328;23;20424;-80
2022/11/23 05:27:59;;;;;;;18.65;7.43;;;;;;;;;;6240987;23;20518;-80
2022/11/23 05:30:26;;;;;;;12.20;6.70;;;;;;;;;;6266948;22;20008;-80
2022/11/23 05:32:52;;;;;;;13.05;7.20;;;;;;;;;;6241078;22;20079;-80
2022/11/23 05:35:19;;;;;;;13.20;5.95;;;;;;;;;;6267452;22;20016;-80
2022/11/23 05:37:45;;;;;;;13.13;7.15;;;;;;;;;;6241449;23;20075;-81
2022/11/23 05:40:11;;;;;;;12.52;7.10;;;;;;;;;;6241504;23;20393;-81
2022/11/23 05:42:37;;;;;;;13.02;6.50;;;;;;;;;;6241358;23;19996;-79
2022/11/23 05:45:11;;;;;;;11.38;6.65;;;;;;;;;;6241690;23;20344;-79
2022/11/23 05:47:40;;;;;;;10.82;6.70;;;;;;;;;;6266825;22;20066;-80
2022/11/23 05:50:15;;;;;;;10.27;6.28;;;;;;;;;;6241887;23;20001;-78
2022/11/23 05:52:44;;;;;;;9.23;5.15;;;;;;;;;;6241516;23;20039;-80
2022/11/23 05:55:09;;;;;;;9.13;5.55;;;;;;;;;;6241797;23;19996;-80
2022/11/23 05:57:35;;;;;;;10.25;5.88;;;;;;;;;;6241311;23;20012;-79
2022/11/23 06:00:01;;;;;;;10.32;5.65;;;;;;;;;;6241248;23;20024;-80
2022/11/23 06:02:39;;;;;;;11.32;6.00;;;;;;;;;;6264176;22;20043;-80
2022/11/23 06:05:06;;;;;;;14.35;7.00;;;;;;;;;;6241359;23;20468;-80
2022/11/23 06:07:40;;;;;;;9.43;5.60;;;;;;;;;;6217729;23;20035;-80
2022/11/23 06:10:09;;;;;;;10.90;5.63;;;;;;;;;;6241006;23;20038;-80
2022/11/23 06:12:38;;;;;;;9.02;4.75;;;;;;;;;;6240997;23;20004;-79
2022/11/23 06:15:07;;;;;;;7.68;4.25;;;;;;;;;;6241460;23;20073;-79
2022/11/23 06:17:34;;;;;;;9.13;4.93;;;;;;;;;;6241273;23;20000;-79
2022/11/23 06:20:06;;;;;;;10.20;4.57;;;;;;;;;;6241084;23;20012;-79
2022/11/23 06:22:50;;;;;;;7.22;4.70;;;;;;;;;;6263071;22;20065;-79
2022/11/23 06:25:16;;;;;;;11.88;5.20;;;;;;;;;;6267438;22;20103;-79
2022/11/23 06:27:55;;;;;;;9.55;5.55;;;;;;;;;;6242889;23;20032;-79
2022/11/23 06:30:24;;;;;;;11.18;7.18;;;;;;;;;;6243142;23;20016;-80
2022/11/23 06:32:50;;;;;;;11.45;6.53;;;;;;;;;;6243214;23;20000;-80
2022/11/23 06:35:17;;;;;;;16.42;10.15;;;;;;;;;;6268822;22;20070;-80
2022/11/23 06:37:43;;;;;;;;;;;;;;;;;;6218429;23;20007;-79
2022/11/23 06:40:10;;;;;;;10.00;6.10;;;;;;;;;;6243297;23;20395;-80
2022/11/23 06:42:36;;;;;;;9.27;5.25;;;;;;;;;;6244404;22;20024;-79
2022/11/23 06:45:01;;;;;;;9.32;5.07;;;;;;;;;;6243283;23;20114;-81
2022/11/23 06:47:27;;;;;;;10.90;5.53;;;;;;;;;;6242691;23;20398;-80
2022/11/23 06:49:54;;;;;;;11.07;7.20;;;;;;;;;;6218087;23;20058;-80
2022/11/23 06:52:25;;;;;;;11.25;6.53;;;;;;;;;;6242674;23;20031;-80
2022/11/23 06:54:51;;;;;;;14.00;7.25;;;;;;;;;;6243069;23;20004;-79
2022/11/23 06:57:17;;;;;;;9.95;6.40;;;;;;;;;;6268214;22;20000;-80
2022/11/23 06:59:44;;;;;;;12.35;5.88;;;;;;;;;;6244617;22;20047;-80
2022/11/23 07:02:11;;;;;;;13.27;6.20;;;;;;;;;;6217880;23;20466;-81
2022/11/23 07:04:36;;;;;;;;;;;;;;;;;;6268944;22;20466;-79
2022/11/23 07:07:08;;;;;;;10.50;7.20;;;;;;;;;;6242130;23;19903;-81
2022/11/23 07:09:43;;;;;;;15.18;5.90;;;;;;;;;;6268619;22;20062;-79
2022/11/23 07:12:21;;;;;;;16.00;5.20;;;;;;;;;;6268219;22;20416;-80
2022/11/23 07:14:47;;;;;;;8.02;4.45;;;;;;;;;;6242582;23;20012;-80
2022/11/23 07:17:12;;;;;;;9.52;5.03;;;;;;;;;;6268291;22;19996;-80
2022/11/23 07:19:38;;;;;;;8.70;4.85;;;;;;;;;;6268230;22;20012;-80
2022/11/23 07:22:05;;;;;;;8.40;4.95;;;;;;;;;;6268003;22;20011;-80
2022/11/23 07:24:30;;;;;;;9.45;4.18;;;;;;;;;;6242939;23;20047;-79
2022/11/23 07:26:56;;;;;;;6.40;4.40;;;;;;;;;;6267976;22;20057;-79
2022/11/23 07:29:22;;;;;;;7.28;4.32;;;;;;;;;;6267966;22;20065;-79
2022/11/23 07:31:47;;;;;;;8.20;4.80;;;;;;;;;;6242891;23;20054;-80
2022/11/23 07:34:13;;;;;;;7.70;3.90;;;;;;;;;;6268339;22;20113;-79
2022/11/23 07:36:41;;;;;;;10.73;4.45;;;;;;;;;;6242808;23;20447;-81
2022/11/23 07:39:06;;;;;;;6.18;3.72;;;;;;;;;;6268229;22;20008;-80
2022/11/23 07:41:32;;;;;;;6.65;4.28;;;;;;;;;;6242478;23;20065;-80
2022/11/23 07:44:09;;;;;;;7.40;4.80;;;;;;;;;;6242355;23;20019;-80
2022/11/23 07:46:34;;;;;;;6.70;3.83;;;;;;;;;;6244064;23;20016;-80
2022/11/23 07:49:01;;;;;;;7.07;4.60;;;;;;;;;;6267698;22;20446;-79
2022/11/23 07:51:27;;;;;;;5.80;3.03;;;;;;;;;;6242474;23;20023;-80
2022/11/23 07:53:52;;;;;;;;;;;;;;;;;;6244340;22;20335;-79
2022/11/23 07:56:18;;;;;;;5.50;4.03;;;;;;;;;;6242687;23;19907;-80
2022/11/23 07:58:43;;;;;;;6.53;4.20;;;;;;;;;;6242403;22;20488;-80
2022/11/23 08:01:10;;;;;;;7.18;3.22;;;;;;;;;;6267766;22;20027;-80
2022/11/23 08:03:36;;;;;;;6.90;4.50;;;;;;;;;;6267850;22;20448;-80
2022/11/23 08:06:01;;;;;;;7.88;4.22;;;;;;;;;;6267817;22;20023;-80
2022/11/23 08:08:27;;;;;;;6.57;4.35;;;;;;;;;;6241976;22;20081;-80
2022/11/23 08:10:52;;;;;;;8.13;4.45;;;;;;;;;;6243518;22;20023;-80
2022/11/23 08:13:19;;;;;;;5.90;3.08;;;;;;;;;;6241985;23;20000;-79
2022/11/23 08:15:44;;;;;;;6.63;4.03;;;;;;;;;;6267566;22;20012;-79
2022/11/23 08:18:10;;;;;;;9.25;4.07;;;;;;;;;;6267714;22;19996;-80
2022/11/23 08:20:35;;;;;;;6.82;3.70;;;;;;;;;;6243685;22;20073;-80
2022/11/23 08:23:01;;;;;;;6.40;3.65;;;;;;;;;;6241994;23;20119;-80
2022/11/23 08:25:26;;;;;;;6.53;3.88;;;;;;;;;;6267517;22;20011;-79
2022/11/23 08:27:59;;;;;;;5.20;3.80;;;;;;;;;;6267431;22;20008;-80
2022/11/23 08:30:25;;;;;;;4.32;2.95;;;;;;;;;;6243452;22;20470;-79
2022/11/23 08:32:50;;;;;;;12.48;3.85;;;;;;;;;;6267293;22;20063;-80
2022/11/23 08:35:16;;;;;;;7.80;4.13;;;;;;;;;;6243749;22;20383;-79
2022/11/23 08:37:41;;;;;;;5.68;3.97;;;;;;;;;;6267528;22;20007;-80
2022/11/23 08:40:07;;;;;;;6.88;4.82;;;;;;;;;;6243588;22;20031;-79
2022/11/23 08:42:32;;;;;;;6.38;4.43;;;;;;;;;;6243179;22;20007;-78
2022/11/23 08:44:58;;;;;;;5.45;4.15;;;;;;;;;;6267511;22;20574;-79
2022/11/23 08:47:24;;;;;;;7.15;4.07;;;;;;;;;;6266816;22;20008;-81
2022/11/23 08:49:50;;;;;;;6.90;4.25;;;;;;;;;;6242155;23;20070;-80
2022/11/23 08:52:15;;;;;;;5.53;3.78;;;;;;;;;;6242247;23;20012;-81
2022/11/23 08:54:41;;;;;;;10.30;4.15;;;;;;;;;;6243775;22;20090;-81
2022/11/23 08:57:06;;;;;;;5.75;3.45;;;;;;;;;;6267544;22;19997;-80
2022/11/23 08:59:33;;;;;;;5.00;3.65;;;;;;;;;;6243274;22;20107;-79
2022/11/23 09:01:58;;;;;;;7.40;4.20;;;;;;;;;;6243184;22;20019;-80
2022/11/23 09:04:26;;;;;;;6.10;4.15;;;;;;;;;;6243036;23;20019;-80
2022/11/23 09:06:52;;;;;;;6.18;3.80;;;;;;;;;;6267269;22;20000;-80
2022/11/23 09:09:17;;;;;;;5.85;4.45;;;;;;;;;;6241495;23;20015;-78
2022/11/23 09:11:43;;;;;;;5.53;3.28;;;;;;;;;;6266996;22;20004;-80
2022/11/23 09:14:08;;;;;;;6.10;3.72;;;;;;;;;;6266860;22;20400;-80
2022/11/23 09:16:34;;;;;;;7.07;3.90;;;;;;;;;;6243388;23;20010;-80
2022/11/23 09:18:59;;;;;;;5.25;3.60;;;;;;;;;;6243531;23;20015;-80
2022/11/23 09:21:29;;;;;;;6.95;4.35;;;;;;;;;;6243371;22;20007;-78
2022/11/23 09:23:54;;;;;;;8.00;4.38;;;;;;;;;;6243076;23;20384;-80
2022/11/23 09:26:20;;;;;;;6.72;4.28;;;;;;;;;;6242419;23;19999;-79
2022/11/23 09:28:45;;;;;;;6.35;4.20;;;;;;;;;;6243067;22;20471;-80
2022/11/23 09:31:11;;;;;;;7.18;4.78;;;;;;;;;;6266862;22;20078;-81
2022/11/23 09:33:36;;;;;;;7.28;4.07;;;;;;;;;;6267127;22;20014;-78
2022/11/23 09:36:02;;;;;;;9.73;4.32;;;;;;;;;;6243295;23;20000;-79
2022/11/23 09:38:28;;;;;;;7.57;4.18;;;;;;;;;;6241848;23;20015;-82
2022/11/23 09:41:00;;;;;;;7.25;4.35;;;;;;;;;;6243291;22;20011;-78
2022/11/23 09:43:25;;;;;;;9.32;4.68;;;;;;;;;;6241170;23;20035;-82
2022/11/23 09:45:54;;;;;;;7.95;4.75;;;;;;;;;;6243287;23;20056;-81
2022/11/23 09:48:38;;;;;;;8.90;4.70;;;;;;;;;;6266982;22;20058;-80
2022/11/23 09:51:06;;;;;;;7.50;4.60;;;;;;;;;;6243279;23;20131;-79
2022/11/23 09:53:34;;;;;;;9.40;4.53;;;;;;;;;;6267233;22;20058;-81
2022/11/23 09:56:00;;;;;;;9.68;5.10;;;;;;;;;;6267401;22;20015;-80
2022/11/23 09:58:27;;;;;;;8.98;4.90;;;;;;;;;;6267277;22;20004;-81
2022/11/23 10:00:54;;;;;;;6.15;3.90;;;;;;;;;;6243522;22;20522;-81
2022/11/23 10:03:20;;;;;;;9.52;5.35;;;;;;;;;;6267096;22;20613;-80
2022/11/23 10:06:06;;;;;;;7.00;4.53;;;;;;;;;;6243185;23;20016;-81
2022/11/23 10:08:50;;;;;;;8.20;4.22;;;;;;;;;;6242121;22;20016;-80
2022/11/23 10:11:16;;;;;;;7.53;4.85;;;;;;;;;;6242775;23;20024;-79
2022/11/23 10:13:41;;;;;;;5.03;2.92;;;;;;;;;;6243243;23;20462;-80
2022/11/23 10:16:22;;;;;;;6.10;3.50;;;;;;;;;;6242919;23;20008;-79
2022/11/23 10:19:03;;;;;;;4.38;2.90;;;;;;;;;;6241550;23;20012;-81
2022/11/23 10:21:33;;;;;;;7.15;3.53;;;;;;;;;;6243518;23;20474;-81
2022/11/23 10:24:18;;;;;;;5.25;2.80;;;;;;;;;;6267238;22;20091;-81
2022/11/23 10:26:45;;;;;;;4.40;2.50;;;;;;;;;;6267213;22;20111;-81
2022/11/23 10:29:29;;;;;;;5.53;3.58;;;;;;;;;;6243314;22;20067;-82
2022/11/23 10:31:55;;;;;;;5.82;3.38;;;;;;;;;;6241991;23;20059;-82
2022/11/23 10:34:23;;;;;;;6.20;3.47;;;;;;;;;;6267687;22;20050;-81
2022/11/23 10:36:48;;;;;;;5.97;2.95;;;;;;;;;;6267540;22;20058;-81
2022/11/23 10:39:26;;;;;;;5.13;2.92;;;;;;;;;;6243175;23;20000;-81
2022/11/23 10:41:52;;;;;;;5.03;2.60;;;;;;;;;;6243367;22;20431;-81
2022/11/23 10:44:24;;;;;;;5.35;2.47;;;;;;;;;;6241652;23;20027;-82
2022/11/23 10:46:49;;;;;;;5.38;3.22;;;;;;;;;;6241484;23;20058;-82
2022/11/23 10:49:16;;;;;;;4.90;3.10;;;;;;;;;;6267414;22;20004;-80
2022/11/23 10:51:51;;;;;;;5.20;2.50;;;;;;;;;;6266676;22;20076;-80
2022/11/23 10:54:36;;;;;;;8.95;3.00;;;;;;;;;;6243293;23;20008;-81
2022/11/23 10:57:19;;;;;;;4.78;3.10;;;;;;;;;;6242403;22;20012;-80
2022/11/23 10:59:46;;;;;;;7.22;3.97;;;;;;;;;;6241586;23;20028;-81
2022/11/23 11:02:16;;;;;;;5.57;2.83;;;;;;;;;;6241541;23;20019;-80
2022/11/23 11:04:42;;;;;;;6.22;3.05;;;;;;;;;;6266675;22;20388;-81
2022/11/23 11:07:21;;;;;;;5.05;3.25;;;;;;;;;;6266753;22;20000;-81
2022/11/23 11:09:48;;;;;;;7.80;3.47;;;;;;;;;;6240960;23;20113;-80
2022/11/23 11:12:17;;;;;;;6.03;3.80;;;;;;;;;;6267779;22;20063;-81
2022/11/23 11:14:55;;;;;;;5.10;3.10;;;;;;;;;;6242563;23;20008;-80
2022/11/23 11:17:25;;;;;;;4.25;2.85;;;;;;;;;;6268569;22;20017;-80
2022/11/23 11:19:51;;;;;;;5.63;3.25;;;;;;;;;;6268397;22;20084;-81
2022/11/23 11:22:27;;;;;;;11.48;2.95;;;;;;;;;;6244533;23;20043;-80
2022/11/23 11:24:52;;;;;;;4.93;3.10;;;;;;;;;;6268704;22;20066;-80
2022/11/23 11:27:21;;;;;;;5.60;2.72;;;;;;;;;;6268667;22;20004;-80
2022/11/23 11:29:50;;;;;;;4.43;2.47;;;;;;;;;;6242861;23;20019;-79
2022/11/23 11:32:17;;;;;;;6.43;3.00;;;;;;;;;;6268247;22;20004;-80
2022/11/23 11:34:45;;;;;;;6.22;3.38;;;;;;;;;;6268009;22;20004;-80
2022/11/23 11:37:13;;;;;;;5.28;3.10;;;;;;;;;;6244333;22;20000;-82
2022/11/23 11:39:57;;;;;;;3.63;2.20;;;;;;;;;;6242405;23;20008;-80
2022/11/23 11:42:26;;;;;;;5.97;2.90;;;;;;;;;;6268701;22;20348;-81
2022/11/23 11:44:51;;;;;;;5.32;3.05;;;;;;;;;;6267868;22;20000;-80
2022/11/23 11:47:20;;;;;;;6.97;3.85;;;;;;;;;;6242522;23;20015;-79
2022/11/23 11:49:45;;;;;;;7.88;3.92;;;;;;;;;;6241931;23;20000;-80
2022/11/23 11:52:13;;;;;;;4.90;3.10;;;;;;;;;;6268293;22;20016;-79
2022/11/23 11:54:41;;;;;;;6.05;2.83;;;;;;;;;;6268038;22;19996;-78
2022/11/23 11:57:45;;;;;;;7.20;3.03;;;;;;;;;;6243817;22;20079;-80
2022/11/23 12:00:13;;;;;;;6.20;3.10;;;;;;;;;;6181307;23;20407;-82
2022/11/23 12:02:44;;;;;;;7.70;3.53;;;;;;;;;;6155892;23;20012;-79
2022/11/23 12:05:26;;;;;;;5.97;4.03;;;;;;;;;;6213385;23;20020;-78
2022/11/23 12:07:58;;;;;;;5.05;3.00;;;;;;;;;;6242043;23;20012;-80
2022/11/23 12:10:25;;;;;;;5.15;3.70;;;;;;;;;;6242680;23;20013;-80
2022/11/23 12:12:51;;;;;;;5.85;3.90;;;;;;;;;;6268100;22;20718;-79
2022/11/23 12:15:16;;;;;;;;;;;;;;;;;;6244254;22;20384;-81
2022/11/23 12:17:48;;;;;;;7.53;3.58;;;;;;;;;;6243579;22;19938;-80
2022/11/23 12:20:37;;;;;;;5.50;3.45;;;;;;;;;;6242909;22;20008;-81
2022/11/23 12:23:12;;;;;;;7.88;4.50;;;;;;;;;;6244139;22;20451;-81
2022/11/23 12:25:38;;;;;;;7.65;4.60;;;;;;;;;;6242598;23;20016;-80
2022/11/23 12:28:03;;;;;;;;;;;;;;;;;;6268587;22;20004;-81
2022/11/23 12:30:30;;;;;;;7.85;4.07;;;;;;;;;;6244062;22;19908;-81
2022/11/23 12:32:55;;;;;;;5.78;3.90;;;;;;;;;;6268342;22;20000;-82
2022/11/23 12:35:30;;;;;;;9.15;4.30;;;;;;;;;;6244781;22;20134;-80
2022/11/23 12:37:55;;;;;;;6.97;4.38;;;;;;;;;;6244518;23;20062;-81
2022/11/23 12:40:29;;;;;;;8.00;4.20;;;;;;;;;;6243370;23;20395;-80
2022/11/23 12:42:59;;;;;;;7.95;4.70;;;;;;;;;;6244921;22;20012;-81
2022/11/23 12:45:44;;;;;;;9.15;4.47;;;;;;;;;;6243260;23;20008;-80
2022/11/23 12:48:32;;;;;;;5.57;3.83;;;;;;;;;;6245516;22;20004;-82
2022/11/23 12:51:20;;;;;;;6.55;4.22;;;;;;;;;;6268530;22;20015;-80
2022/11/23 12:53:53;;;;;;;7.05;3.33;;;;;;;;;;6201226;22;20066;-82
2022/11/23 12:56:18;;;;;;;5.22;3.00;;;;;;;;;;6243872;22;20015;-83
2022/11/23 12:58:43;;;;;;;7.60;3.60;;;;;;;;;;6244625;22;20016;-82
2022/11/23 13:01:11;;;;;;;9.23;4.47;;;;;;;;;;6245001;23;20402;-80
2022/11/23 13:03:46;;;;;;;6.38;3.63;;;;;;;;;;6269373;22;20046;-82
2022/11/23 13:06:21;;;;;;;5.65;3.70;;;;;;;;;;6243799;23;20015;-81
2022/11/23 13:08:47;;;;;;;6.35;3.83;;;;;;;;;;6269037;22;20016;-81
2022/11/23 13:11:15;;;;;;;8.15;4.30;;;;;;;;;;6244753;22;20451;-81
2022/11/23 13:14:10;;;;;;;5.88;3.80;;;;;;;;;;6245171;22;20447;-82
2022/11/23 13:16:56;;;;;;;6.78;3.50;;;;;;;;;;6217452;23;20456;-81
2022/11/23 13:19:32;;;;;;;6.75;3.17;;;;;;;;;;6244867;23;20007;-80
2022/11/23 13:21:58;;;;;;;5.88;3.63;;;;;;;;;;6268973;22;20035;-80
2022/11/23 13:24:24;;;;;;;5.07;3.42;;;;;;;;;;6244869;22;20485;-81
2022/11/23 13:27:08;;;;;;;5.35;3.30;;;;;;;;;;6268674;22;20012;-82
2022/11/23 13:29:49;;;;;;;6.35;3.75;;;;;;;;;;6244586;22;20016;-80
2022/11/23 13:32:34;;;;;;;7.07;3.88;;;;;;;;;;6244195;22;20070;-80
2022/11/23 13:34:59;;;;;;;7.90;3.85;;;;;;;;;;6241889;23;20394;-80
2022/11/23 13:37:25;;;;;;;5.88;3.10;;;;;;;;;;6267511;22;20004;-81
2022/11/23 13:39:50;;;;;;;5.03;3.38;;;;;;;;;;6268203;22;20074;-81
2022/11/23 13:42:16;;;;;;;9.38;6.53;;;;;;;;;;6242342;23;20011;-79
2022/11/23 13:44:41;;;;;;;7.05;4.88;;;;;;;;;;6269249;22;20378;-80
2022/11/23 13:47:15;;;;;;;5.30;3.47;;;;;;;;;;6269120;22;20004;-81
2022/11/23 13:49:41;;;;;;;6.45;3.45;;;;;;;;;;6244320;22;20015;-82
2022/11/23 13:52:22;;;;;;;9.20;3.42;;;;;;;;;;6244531;23;20092;-83
2022/11/23 13:54:54;;;;;;;5.40;3.15;;;;;;;;;;6243913;23;20394;-82
2022/11/23 13:57:20;;;;;;;5.60;2.97;;;;;;;;;;6267983;22;20012;-81
2022/11/23 13:59:45;;;;;;;4.43;3.30;;;;;;;;;;6268072;22;20098;-81
2022/11/23 14:02:11;;;;;;;7.18;3.53;;;;;;;;;;6243542;23;20012;-81
2022/11/23 14:04:37;;;;;;;9.35;3.88;;;;;;;;;;6244063;23;20336;-81
2022/11/23 14:07:09;;;;;;;8.32;2.80;;;;;;;;;;6268665;22;20100;-81
2022/11/23 14:09:38;;;;;;;7.10;3.28;;;;;;;;;;6268621;22;20356;-82
2022/11/23 14:12:07;;;;;;;6.00;3.17;;;;;;;;;;6268595;22;20037;-82
2022/11/23 14:14:42;;;;;;;6.03;4.10;;;;;;;;;;6244525;23;20008;-83
2022/11/23 14:17:13;;;;;;;5.00;3.63;;;;;;;;;;6244522;23;20008;-83
2022/11/23 14:19:39;;;;;;;5.25;3.70;;;;;;;;;;6244959;22;20066;-83
2022/11/23 14:22:23;;;;;;;4.82;3.22;;;;;;;;;;6244728;23;20008;-83
2022/11/23 14:25:01;;;;;;;4.90;3.10;;;;;;;;;;6242504;23;20047;-82
2022/11/23 14:27:45;;;;;;;4.88;3.17;;;;;;;;;;6268531;22;20198;-83
2022/11/23 14:30:14;;;;;;;4.70;2.60;;;;;;;;;;6244337;22;20019;-81
2022/11/23 14:32:42;;;;;;;5.45;3.42;;;;;;;;;;6244173;22;20008;-82
2022/11/23 14:35:14;;;;;;;4.25;2.67;;;;;;;;;;6244824;23;20007;-82
2022/11/23 14:37:49;;;;;;;6.03;2.83;;;;;;;;;;6242169;23;20008;-83
2022/11/23 14:40:26;;;;;;;6.20;2.60;;;;;;;;;;6244145;23;20016;-82
2022/11/23 14:42:53;;;;;;;3.90;2.50;;;;;;;;;;6244010;22;20012;-83
2022/11/23 14:45:19;;;;;;;5.60;2.67;;;;;;;;;;6268081;22;20000;-82
2022/11/23 14:47:44;;;;;;;5.95;3.22;;;;;;;;;;6270113;22;20016;-82
2022/11/23 14:50:20;;;;;;;3.55;2.45;;;;;;;;;;6246136;23;20004;-84
2022/11/23 14:52:45;;;;;;;4.15;2.55;;;;;;;;;;6244448;23;20359;-84